sensor_id;sensor_type;location;lat;lon;timestamp;pressure;altitude;pressure_sealevel;temperature;humidity
21276;BME280;36472;52.170;20.884;2023-10-19T00:00:12;100055.56;;;3.91;78.38
21276;BME280;36472;52.170;20.884;2023-10-19T00:03:11;100057.19;;;3.94;78.46
21276;BME280;36472;52.170;20.884;2023-10-19T00:05:41;100053.94;;;3.89;78.42
21276;BME280;36472;52.170;20.884;2023-10-19T00:08:11;100053.94;;;3.89;78.36
21276;BME280;36472;52.170;20.884;2023-10-19T00:10:47;100049.00;;;3.83;78.18
21276;BME280;36472;52.170;20.884;2023-10-19T00:13:16;100045.56;;;3.82;77.78
21276;BME280;36472;52.170;20.884;2023-10-19T00:15:47;100043.06;;;3.79;78.09
21276;BME280;36472;52.170;20.884;2023-10-19T00:18:16;100036.97;;;3.80;78.45
21276;BME280;36472;52.170;20.884;2023-10-19T00:20:54;100035.38;;;3.78;78.14
21276;BME280;36472;52.170;20.884;2023-10-19T00:23:28;100033.66;;;3.77;78.76
21276;BME280;36472;52.170;20.884;2023-10-19T00:26:01;100038.88;;;3.77;78.27
21276;BME280;36472;52.170;20.884;2023-10-19T00:28:36;100032.13;;;3.72;78.21
21276;BME280;36472;52.170;20.884;2023-10-19T00:31:07;100024.44;;;3.69;78.98
21276;BME280;36472;52.170;20.884;2023-10-19T00:33:36;100025.53;;;3.64;79.37
21276;BME280;36472;52.170;20.884;2023-10-19T00:36:08;100026.19;;;3.69;79.70
21276;BME280;36472;52.170;20.884;2023-10-19T00:38:42;100023.59;;;3.69;79.29
21276;BME280;36472;52.170;20.884;2023-10-19T00:41:23;100011.47;;;3.69;78.91
21276;BME280;36472;52.170;20.884;2023-10-19T00:43:58;100020.22;;;3.67;78.84
21276;BME280;36472;52.170;20.884;2023-10-19T00:46:31;100008.84;;;3.69;78.63
21276;BME280;36472;52.170;20.884;2023-10-19T00:49:06;100011.00;;;3.60;78.71
21276;BME280;36472;52.170;20.884;2023-10-19T00:51:42;100009.38;;;3.57;79.28
21276;BME280;36472;52.170;20.884;2023-10-19T00:54:27;100007.63;;;3.58;78.39
21276;BME280;36472;52.170;20.884;2023-10-19T00:57:02;100000.84;;;3.53;78.78
21276;BME280;36472;52.170;20.884;2023-10-19T00:59:39;100002.56;;;3.54;78.33
21276;BME280;36472;52.170;20.884;2023-10-19T01:02:16;100002.50;;;3.56;78.73
21276;BME280;36472;52.170;20.884;2023-10-19T01:04:48;99991.03;;;3.60;78.57
21276;BME280;36472;52.170;20.884;2023-10-19T01:07:25;99987.53;;;3.61;78.65
21276;BME280;36472;52.170;20.884;2023-10-19T01:10:00;99981.44;;;3.62;78.36
21276;BME280;36472;52.170;20.884;2023-10-19T01:12:31;99973.00;;;3.57;78.90
21276;BME280;36472;52.170;20.884;2023-10-19T01:15:09;99973.00;;;3.57;79.67
21276;BME280;36472;52.170;20.884;2023-10-19T01:17:43;99966.94;;;3.56;79.80
21276;BME280;36472;52.170;20.884;2023-10-19T01:20:15;99967.81;;;3.57;79.04
21276;BME280;36472;52.170;20.884;2023-10-19T01:22:54;99967.72;;;3.59;79.13
21276;BME280;36472;52.170;20.884;2023-10-19T01:25:43;99962.34;;;3.63;79.31
21276;BME280;36472;52.170;20.884;2023-10-19T01:28:18;99964.03;;;3.64;79.13
21276;BME280;36472;52.170;20.884;2023-10-19T01:30:47;99963.25;;;3.62;79.00
21276;BME280;36472;52.170;20.884;2023-10-19T01:33:21;99958.84;;;3.64;79.12
21276;BME280;36472;52.170;20.884;2023-10-19T01:35:50;99957.06;;;3.65;79.36
21276;BME280;36472;52.170;20.884;2023-10-19T01:38:39;99949.28;;;3.65;79.25
21276;BME280;36472;52.170;20.884;2023-10-19T01:41:09;99951.88;;;3.65;79.66
21276;BME280;36472;52.170;20.884;2023-10-19T01:43:49;99946.69;;;3.65;79.15
21276;BME280;36472;52.170;20.884;2023-10-19T01:46:23;99953.41;;;3.69;79.44
21276;BME280;36472;52.170;20.884;2023-10-19T01:48:54;99956.00;;;3.69;79.37
21276;BME280;36472;52.170;20.884;2023-10-19T01:51:26;99955.13;;;3.70;79.03
21276;BME280;36472;52.170;20.884;2023-10-19T01:53:56;99955.06;;;3.71;79.13
21276;BME280;36472;52.170;20.884;2023-10-19T01:56:27;99953.16;;;3.75;79.52
21276;BME280;36472;52.170;20.884;2023-10-19T01:58:55;99949.03;;;3.71;79.26
21276;BME280;36472;52.170;20.884;2023-10-19T02:01:25;99953.41;;;3.69;79.37
21276;BME280;36472;52.170;20.884;2023-10-19T02:04:00;99950.75;;;3.70;79.27
21276;BME280;36472;52.170;20.884;2023-10-19T02:06:33;99942.94;;;3.70;78.72
21276;BME280;36472;52.170;20.884;2023-10-19T02:09:07;99930.13;;;3.67;78.60
21276;BME280;36472;52.170;20.884;2023-10-19T02:11:48;99936.03;;;3.71;79.34
21276;BME280;36472;52.170;20.884;2023-10-19T02:14:18;99931.91;;;3.65;79.03
21276;BME280;36472;52.170;20.884;2023-10-19T02:16:51;99927.84;;;3.60;79.54
21276;BME280;36472;52.170;20.884;2023-10-19T02:19:22;99918.69;;;3.51;79.89
21276;BME280;36472;52.170;20.884;2023-10-19T02:21:54;99929.03;;;3.52;79.70
21276;BME280;36472;52.170;20.884;2023-10-19T02:24:26;99920.41;;;3.52;79.76
21276;BME280;36472;52.170;20.884;2023-10-19T02:26:56;99919.59;;;3.50;79.69
21276;BME280;36472;52.170;20.884;2023-10-19T02:29:26;99916.03;;;3.52;79.77
21276;BME280;36472;52.170;20.884;2023-10-19T02:31:55;99913.50;;;3.51;79.92
21276;BME280;36472;52.170;20.884;2023-10-19T02:34:25;99915.19;;;3.52;80.22
21276;BME280;36472;52.170;20.884;2023-10-19T02:36:53;99916.75;;;3.56;80.00
21276;BME280;36472;52.170;20.884;2023-10-19T02:39:22;99911.53;;;3.56;80.06
21276;BME280;36472;52.170;20.884;2023-10-19T02:41:57;99908.81;;;3.59;80.32
21276;BME280;36472;52.170;20.884;2023-10-19T02:44:29;99900.31;;;3.55;80.41
21276;BME280;36472;52.170;20.884;2023-10-19T02:46:58;99905.44;;;3.57;80.48
21276;BME280;36472;52.170;20.884;2023-10-19T02:49:30;99899.31;;;3.58;80.54
21276;BME280;36472;52.170;20.884;2023-10-19T02:51:58;99897.56;;;3.59;80.29
21276;BME280;36472;52.170;20.884;2023-10-19T02:54:32;99898.44;;;3.59;80.29
21276;BME280;36472;52.170;20.884;2023-10-19T02:57:04;99891.28;;;3.64;80.10
21276;BME280;36472;52.170;20.884;2023-10-19T02:59:36;99896.78;;;3.56;80.19
21276;BME280;36472;52.170;20.884;2023-10-19T03:02:06;99887.41;;;3.54;80.30
21276;BME280;36472;52.170;20.884;2023-10-19T03:04:43;99885.81;;;3.50;80.70
21276;BME280;36472;52.170;20.884;2023-10-19T03:07:14;99886.63;;;3.52;80.47
21276;BME280;36472;52.170;20.884;2023-10-19T03:09:44;99877.00;;;3.54;79.90
21276;BME280;36472;52.170;20.884;2023-10-19T03:12:19;99868.34;;;3.53;79.99
21276;BME280;36472;52.170;20.884;2023-10-19T03:14:47;99877.84;;;3.54;79.86
21276;BME280;36472;52.170;20.884;2023-10-19T03:17:17;99871.66;;;3.57;80.03
21276;BME280;36472;52.170;20.884;2023-10-19T03:19:46;99869.78;;;3.61;79.56
21276;BME280;36472;52.170;20.884;2023-10-19T03:22:16;99867.13;;;3.62;79.93
21276;BME280;36472;52.170;20.884;2023-10-19T03:24:47;99861.13;;;3.60;79.98
21276;BME280;36472;52.170;20.884;2023-10-19T03:27:27;99861.06;;;3.62;80.38
21276;BME280;36472;52.170;20.884;2023-10-19T03:29:56;99862.38;;;3.70;80.27
21276;BME280;36472;52.170;20.884;2023-10-19T03:32:27;99854.66;;;3.69;80.69
21276;BME280;36472;52.170;20.884;2023-10-19T03:35:01;99844.19;;;3.70;80.45
21276;BME280;36472;52.170;20.884;2023-10-19T03:37:32;99839.78;;;3.72;80.64
21276;BME280;36472;52.170;20.884;2023-10-19T03:40:04;99842.41;;;3.72;80.73
21276;BME280;36472;52.170;20.884;2023-10-19T03:42:36;99832.75;;;3.74;80.95
21276;BME280;36472;52.170;20.884;2023-10-19T03:45:09;99824.91;;;3.76;80.96
21276;BME280;36472;52.170;20.884;2023-10-19T03:47:40;99820.41;;;3.80;80.40
21276;BME280;36472;52.170;20.884;2023-10-19T03:50:11;99812.53;;;3.81;80.50
21276;BME280;36472;52.170;20.884;2023-10-19T03:52:48;99808.31;;;3.79;80.58
21276;BME280;36472;52.170;20.884;2023-10-19T03:55:17;99798.84;;;3.78;81.05
21276;BME280;36472;52.170;20.884;2023-10-19T03:57:48;99800.56;;;3.77;80.81
21276;BME280;36472;52.170;20.884;2023-10-19T04:00:22;99795.38;;;3.77;80.57
21276;BME280;36472;52.170;20.884;2023-10-19T04:02:55;99791.03;;;3.78;80.73
21276;BME280;36472;52.170;20.884;2023-10-19T04:05:27;99792.72;;;3.79;80.50
21276;BME280;36472;52.170;20.884;2023-10-19T04:07:56;99794.47;;;3.78;80.23
21276;BME280;36472;52.170;20.884;2023-10-19T04:10:26;99790.09;;;3.79;80.44
21276;BME280;36472;52.170;20.884;2023-10-19T04:13:08;99778.13;;;3.76;80.52
21276;BME280;36472;52.170;20.884;2023-10-19T04:15:41;99781.56;;;3.77;80.70
21276;BME280;36472;52.170;20.884;2023-10-19T04:18:10;99767.78;;;3.74;80.99
21276;BME280;36472;52.170;20.884;2023-10-19T04:20:39;99765.06;;;3.78;81.26
21276;BME280;36472;52.170;20.884;2023-10-19T04:23:24;99764.88;;;3.81;81.40
21276;BME280;36472;52.170;20.884;2023-10-19T04:25:56;99757.72;;;3.86;81.01
21276;BME280;36472;52.170;20.884;2023-10-19T04:28:27;99744.63;;;3.87;81.46
21276;BME280;36472;52.170;20.884;2023-10-19T04:31:05;99753.19;;;3.89;81.28
21276;BME280;36472;52.170;20.884;2023-10-19T04:33:35;99753.91;;;3.93;81.32
21276;BME280;36472;52.170;20.884;2023-10-19T04:36:04;99747.72;;;3.96;80.93
21276;BME280;36472;52.170;20.884;2023-10-19T04:38:38;99753.69;;;3.98;81.29
21276;BME280;36472;52.170;20.884;2023-10-19T04:41:10;99749.16;;;4.01;81.54
21276;BME280;36472;52.170;20.884;2023-10-19T04:43:40;99751.00;;;3.99;81.88
21276;BME280;36472;52.170;20.884;2023-10-19T04:46:18;99746.56;;;4.01;82.23
21276;BME280;36472;52.170;20.884;2023-10-19T04:48:47;99747.97;;;4.08;82.47
21276;BME280;36472;52.170;20.884;2023-10-19T04:51:17;99748.75;;;4.10;82.29
21276;BME280;36472;52.170;20.884;2023-10-19T04:53:46;99745.22;;;4.11;82.02
21276;BME280;36472;52.170;20.884;2023-10-19T04:56:18;99738.25;;;4.12;82.09
21276;BME280;36472;52.170;20.884;2023-10-19T04:58:48;99741.56;;;4.16;81.86
21276;BME280;36472;52.170;20.884;2023-10-19T05:01:18;99745.69;;;4.20;82.14
21276;BME280;36472;52.170;20.884;2023-10-19T05:03:47;99736.91;;;4.22;81.78
21276;BME280;36472;52.170;20.884;2023-10-19T05:06:16;99743.94;;;4.20;81.56
21276;BME280;36472;52.170;20.884;2023-10-19T05:08:46;99741.47;;;4.17;81.55
21276;BME280;36472;52.170;20.884;2023-10-19T05:11:15;99739.72;;;4.18;81.34
21276;BME280;36472;52.170;20.884;2023-10-19T05:13:44;99745.81;;;4.17;81.35
21276;BME280;36472;52.170;20.884;2023-10-19T05:16:15;99734.50;;;4.18;81.34
21276;BME280;36472;52.170;20.884;2023-10-19T05:18:44;99746.63;;;4.19;81.23
21276;BME280;36472;52.170;20.884;2023-10-19T05:21:13;99748.19;;;4.21;80.91
21276;BME280;36472;52.170;20.884;2023-10-19T05:23:42;99743.84;;;4.22;80.53
21276;BME280;36472;52.170;20.884;2023-10-19T05:26:11;99748.19;;;4.21;81.21
21276;BME280;36472;52.170;20.884;2023-10-19T05:28:42;99735.81;;;4.26;80.69
21276;BME280;36472;52.170;20.884;2023-10-19T05:31:12;99734.03;;;4.27;80.75
21276;BME280;36472;52.170;20.884;2023-10-19T05:33:42;99737.38;;;4.30;80.74
21276;BME280;36472;52.170;20.884;2023-10-19T05:36:11;99740.94;;;4.28;80.42
21276;BME280;36472;52.170;20.884;2023-10-19T05:38:42;99741.69;;;4.30;80.40
21276;BME280;36472;52.170;20.884;2023-10-19T05:41:12;99746.84;;;4.31;80.37
21276;BME280;36472;52.170;20.884;2023-10-19T05:43:42;99743.53;;;4.28;80.23
21276;BME280;36472;52.170;20.884;2023-10-19T05:46:11;99733.28;;;4.25;80.71
21276;BME280;36472;52.170;20.884;2023-10-19T05:48:42;99731.63;;;4.24;81.08
21276;BME280;36472;52.170;20.884;2023-10-19T05:51:13;99739.34;;;4.25;80.95
21276;BME280;36472;52.170;20.884;2023-10-19T05:53:43;99733.28;;;4.25;80.69
21276;BME280;36472;52.170;20.884;2023-10-19T05:56:12;99728.84;;;4.27;80.95
21276;BME280;36472;52.170;20.884;2023-10-19T05:58:41;99721.84;;;4.29;81.03
21276;BME280;36472;52.170;20.884;2023-10-19T06:01:10;99723.34;;;4.33;81.24
21276;BME280;36472;52.170;20.884;2023-10-19T06:03:39;99726.72;;;4.35;81.11
21276;BME280;36472;52.170;20.884;2023-10-19T06:06:09;99718.28;;;4.30;81.20
21276;BME280;36472;52.170;20.884;2023-10-19T06:08:40;99715.53;;;4.33;81.36
21276;BME280;36472;52.170;20.884;2023-10-19T06:11:09;99727.19;;;4.26;81.60
21276;BME280;36472;52.170;20.884;2023-10-19T06:13:38;99733.97;;;4.28;81.25
21276;BME280;36472;52.170;20.884;2023-10-19T06:16:07;99733.91;;;4.30;81.87
21276;BME280;36472;52.170;20.884;2023-10-19T06:18:36;99734.28;;;4.22;81.56
21276;BME280;36472;52.170;20.884;2023-10-19T06:21:05;99728.53;;;4.33;81.50
21276;BME280;36472;52.170;20.884;2023-10-19T06:23:36;99714.38;;;4.39;81.45
21276;BME280;36472;52.170;20.884;2023-10-19T06:26:09;99715.28;;;4.55;81.62
21276;BME280;36472;52.170;20.884;2023-10-19T06:28:40;99715.81;;;4.62;81.34
21276;BME280;36472;52.170;20.884;2023-10-19T06:31:09;99718.13;;;4.68;81.51
21276;BME280;36472;52.170;20.884;2023-10-19T06:33:38;99715.63;;;4.82;81.27
21276;BME280;36472;52.170;20.884;2023-10-19T06:36:09;99710.00;;;4.90;81.23
21276;BME280;36472;52.170;20.884;2023-10-19T06:38:40;99701.13;;;4.94;81.34
21276;BME280;36472;52.170;20.884;2023-10-19T06:41:13;99698.78;;;5.05;81.39
21276;BME280;36472;52.170;20.884;2023-10-19T06:43:44;99698.31;;;5.15;81.03
21276;BME280;36472;52.170;20.884;2023-10-19T06:46:14;99689.06;;;5.25;80.82
21276;BME280;36472;52.170;20.884;2023-10-19T06:48:43;99685.94;;;5.34;80.83
21276;BME280;36472;52.170;20.884;2023-10-19T06:51:13;99677.47;;;5.47;80.62
21276;BME280;36472;52.170;20.884;2023-10-19T06:53:45;99675.25;;;5.55;80.81
21276;BME280;36472;52.170;20.884;2023-10-19T06:56:14;99671.88;;;5.69;80.67
21276;BME280;36472;52.170;20.884;2023-10-19T06:58:44;99669.25;;;5.85;80.39
21276;BME280;36472;52.170;20.884;2023-10-19T07:01:13;99674.34;;;6.02;79.76
21276;BME280;36472;52.170;20.884;2023-10-19T07:03:44;99668.41;;;6.14;78.72
21276;BME280;36472;52.170;20.884;2023-10-19T07:06:13;99669.28;;;6.29;79.04
21276;BME280;36472;52.170;20.884;2023-10-19T07:08:42;99675.81;;;6.36;78.49
21276;BME280;36472;52.170;20.884;2023-10-19T07:11:12;99681.81;;;6.53;77.78
21276;BME280;36472;52.170;20.884;2023-10-19T07:13:41;99679.13;;;6.69;77.78
21276;BME280;36472;52.170;20.884;2023-10-19T07:16:12;99675.47;;;6.86;77.89
21276;BME280;36472;52.170;20.884;2023-10-19T07:18:41;99664.28;;;6.98;77.43
21276;BME280;36472;52.170;20.884;2023-10-19T07:21:11;99660.69;;;7.14;76.57
21276;BME280;36472;52.170;20.884;2023-10-19T07:23:40;99659.59;;;7.18;76.49
21276;BME280;36472;52.170;20.884;2023-10-19T07:26:13;99652.78;;;7.42;75.58
21276;BME280;36472;52.170;20.884;2023-10-19T07:28:42;99649.72;;;7.63;75.72
21276;BME280;36472;52.170;20.884;2023-10-19T07:31:11;99643.38;;;7.67;75.04
21276;BME280;36472;52.170;20.884;2023-10-19T07:33:43;99635.25;;;7.84;73.92
21276;BME280;36472;52.170;20.884;2023-10-19T07:36:15;99632.56;;;7.99;73.51
21276;BME280;36472;52.170;20.884;2023-10-19T07:38:44;99635.50;;;8.07;73.17
21276;BME280;36472;52.170;20.884;2023-10-19T07:41:17;99627.78;;;8.18;72.98
21276;BME280;36472;52.170;20.884;2023-10-19T07:43:46;99634.59;;;8.34;72.01
21276;BME280;36472;52.170;20.884;2023-10-19T07:46:15;99637.75;;;8.52;71.37
21276;BME280;36472;52.170;20.884;2023-10-19T07:48:44;99626.44;;;8.51;71.45
21276;BME280;36472;52.170;20.884;2023-10-19T07:51:13;99621.47;;;8.72;71.10
21276;BME280;36472;52.170;20.884;2023-10-19T07:53:43;99611.72;;;8.87;71.66
21276;BME280;36472;52.170;20.884;2023-10-19T07:56:13;99618.69;;;8.99;71.21
21276;BME280;36472;52.170;20.884;2023-10-19T07:58:43;99607.75;;;9.18;70.46
21276;BME280;36472;52.170;20.884;2023-10-19T08:01:13;99613.78;;;9.32;70.26
21276;BME280;36472;52.170;20.884;2023-10-19T08:03:42;99610.31;;;9.31;68.37
21276;BME280;36472;52.170;20.884;2023-10-19T08:06:12;99615.84;;;9.40;68.58
21276;BME280;36472;52.170;20.884;2023-10-19T08:08:41;99608.41;;;9.33;67.71
21276;BME280;36472;52.170;20.884;2023-10-19T08:11:10;99606.22;;;9.27;67.88
21276;BME280;36472;52.170;20.884;2023-10-19T08:13:40;99600.34;;;9.36;67.43
21276;BME280;36472;52.170;20.884;2023-10-19T08:16:10;99585.50;;;9.60;67.46
21276;BME280;36472;52.170;20.884;2023-10-19T08:18:39;99587.69;;;9.66;67.12
21276;BME280;36472;52.170;20.884;2023-10-19T08:21:09;99583.00;;;9.82;66.81
21276;BME280;36472;52.170;20.884;2023-10-19T08:23:38;99573.47;;;9.92;65.63
21276;BME280;36472;52.170;20.884;2023-10-19T08:26:08;99569.78;;;10.06;65.74
21276;BME280;36472;52.170;20.884;2023-10-19T08:28:37;99564.53;;;10.18;64.69
21276;BME280;36472;52.170;20.884;2023-10-19T08:31:10;99566.09;;;10.20;63.85
21276;BME280;36472;52.170;20.884;2023-10-19T08:33:39;99552.34;;;10.05;63.14
21276;BME280;36472;52.170;20.884;2023-10-19T08:36:17;99560.84;;;10.20;63.97
21276;BME280;36472;52.170;20.884;2023-10-19T08:38:47;99555.97;;;10.27;62.66
21276;BME280;36472;52.170;20.884;2023-10-19T08:41:17;99544.31;;;10.42;63.10
21276;BME280;36472;52.170;20.884;2023-10-19T08:43:46;99539.63;;;10.57;62.40
21276;BME280;36472;52.170;20.884;2023-10-19T08:46:18;99525.94;;;10.86;62.00
21276;BME280;36472;52.170;20.884;2023-10-19T08:48:47;99535.09;;;11.03;60.48
21276;BME280;36472;52.170;20.884;2023-10-19T08:51:17;99534.88;;;11.06;60.09
21276;BME280;36472;52.170;20.884;2023-10-19T08:53:48;99529.16;;;11.01;59.16
21276;BME280;36472;52.170;20.884;2023-10-19T08:56:19;99526.75;;;10.98;59.84
21276;BME280;36472;52.170;20.884;2023-10-19T08:58:51;99529.81;;;11.14;59.99
21276;BME280;36472;52.170;20.884;2023-10-19T09:01:22;99529.59;;;11.06;59.20
21276;BME280;36472;52.170;20.884;2023-10-19T09:03:51;99534.09;;;11.15;59.29
21276;BME280;36472;52.170;20.884;2023-10-19T09:06:21;99535.09;;;11.03;58.35
21276;BME280;36472;52.170;20.884;2023-10-19T09:08:50;99522.97;;;11.23;58.63
21276;BME280;36472;52.170;20.884;2023-10-19T09:11:19;99518.63;;;11.33;57.85
21276;BME280;36472;52.170;20.884;2023-10-19T09:13:50;99514.47;;;11.73;57.48
21276;BME280;36472;52.170;20.884;2023-10-19T09:16:22;99505.25;;;12.00;56.59
21276;BME280;36472;52.170;20.884;2023-10-19T09:18:51;99506.34;;;12.38;56.30
21276;BME280;36472;52.170;20.884;2023-10-19T09:21:20;99494.00;;;12.38;55.12
21276;BME280;36472;52.170;20.884;2023-10-19T09:23:56;99486.22;;;12.37;55.15
21276;BME280;36472;52.170;20.884;2023-10-19T09:26:26;99498.97;;;12.31;54.66
21276;BME280;36472;52.170;20.884;2023-10-19T09:28:55;99498.03;;;12.32;55.09
21276;BME280;36472;52.170;20.884;2023-10-19T09:31:25;99484.19;;;12.50;55.07
21276;BME280;36472;52.170;20.884;2023-10-19T09:33:55;99479.06;;;12.39;54.71
21276;BME280;36472;52.170;20.884;2023-10-19T09:36:25;99473.66;;;12.50;54.60
21276;BME280;36472;52.170;20.884;2023-10-19T09:38:57;99462.72;;;12.54;54.76
21276;BME280;36472;52.170;20.884;2023-10-19T09:41:27;99456.22;;;12.68;54.91
21276;BME280;36472;52.170;20.884;2023-10-19T09:44:01;99452.19;;;12.74;54.78
21276;BME280;36472;52.170;20.884;2023-10-19T09:46:40;99441.09;;;12.61;54.32
21276;BME280;36472;52.170;20.884;2023-10-19T09:49:10;99439.09;;;12.43;54.71
21276;BME280;36472;52.170;20.884;2023-10-19T09:51:42;99433.34;;;12.79;54.51
21276;BME280;36472;52.170;20.884;2023-10-19T09:54:54;99424.06;;;13.14;53.70
21276;BME280;36472;52.170;20.884;2023-10-19T09:57:37;99418.97;;;13.59;52.02
21276;BME280;36472;52.170;20.884;2023-10-19T10:00:11;99415.00;;;14.11;51.26
21276;BME280;36472;52.170;20.884;2023-10-19T10:02:43;99407.56;;;13.69;50.29
21276;BME280;36472;52.170;20.884;2023-10-19T10:05:45;99402.78;;;13.35;51.08
21276;BME280;36472;52.170;20.884;2023-10-19T10:08:36;99402.53;;;13.08;51.65
21276;BME280;36472;52.170;20.884;2023-10-19T10:11:19;99402.81;;;12.86;52.06
21276;BME280;36472;52.170;20.884;2023-10-19T10:13:50;99397.28;;;12.69;52.33
21276;BME280;36472;52.170;20.884;2023-10-19T10:16:24;99395.59;;;12.49;52.62
21276;BME280;36472;52.170;20.884;2023-10-19T10:18:59;99389.41;;;12.19;53.55
21276;BME280;36472;52.170;20.884;2023-10-19T10:21:29;99383.72;;;12.14;53.67
21276;BME280;36472;52.170;20.884;2023-10-19T10:24:00;99375.69;;;12.15;54.03
21276;BME280;36472;52.170;20.884;2023-10-19T10:26:58;99370.47;;;12.35;54.09
21276;BME280;36472;52.170;20.884;2023-10-19T10:29:27;99368.13;;;12.61;54.62
21276;BME280;36472;52.170;20.884;2023-10-19T10:31:58;99367.03;;;12.93;53.03
21276;BME280;36472;52.170;20.884;2023-10-19T10:34:45;99360.34;;;12.89;52.10
21276;BME280;36472;52.170;20.884;2023-10-19T10:37:16;99358.69;;;12.78;52.20
21276;BME280;36472;52.170;20.884;2023-10-19T10:39:46;99365.06;;;12.95;52.56
21276;BME280;36472;52.170;20.884;2023-10-19T10:42:17;99359.94;;;12.84;52.46
21276;BME280;36472;52.170;20.884;2023-10-19T10:44:48;99363.41;;;12.75;52.40
21276;BME280;36472;52.170;20.884;2023-10-19T10:47:22;99355.38;;;12.66;52.75
21276;BME280;36472;52.170;20.884;2023-10-19T10:49:56;99340.25;;;12.59;52.95
21276;BME280;36472;52.170;20.884;2023-10-19T10:52:27;99333.72;;;12.53;53.29
21276;BME280;36472;52.170;20.884;2023-10-19T10:55:05;99332.88;;;12.23;53.33
21276;BME280;36472;52.170;20.884;2023-10-19T10:57:35;99329.97;;;12.16;53.74
21276;BME280;36472;52.170;20.884;2023-10-19T11:00:07;99332.56;;;12.07;53.79
21276;BME280;36472;52.170;20.884;2023-10-19T11:02:37;99319.00;;;12.21;54.48
21276;BME280;36472;52.170;20.884;2023-10-19T11:05:14;99318.59;;;12.26;54.45
21276;BME280;36472;52.170;20.884;2023-10-19T11:08:06;99312.09;;;12.30;54.08
21276;BME280;36472;52.170;20.884;2023-10-19T11:10:37;99307.50;;;12.42;54.29
21276;BME280;36472;52.170;20.884;2023-10-19T11:13:07;99300.84;;;12.28;54.03
21276;BME280;36472;52.170;20.884;2023-10-19T11:15:38;99308.34;;;12.32;53.86
21276;BME280;36472;52.170;20.884;2023-10-19T11:18:09;99297.41;;;12.37;54.48
21276;BME280;36472;52.170;20.884;2023-10-19T11:20:40;99296.97;;;12.22;54.17
21276;BME280;36472;52.170;20.884;2023-10-19T11:23:09;99294.63;;;12.39;54.58
21276;BME280;36472;52.170;20.884;2023-10-19T11:25:39;99275.63;;;12.45;53.94
21276;BME280;36472;52.170;20.884;2023-10-19T11:28:17;99271.03;;;12.47;54.76
21276;BME280;36472;52.170;20.884;2023-10-19T11:30:47;99276.28;;;12.47;54.30
21276;BME280;36472;52.170;20.884;2023-10-19T11:33:16;99269.38;;;12.36;54.79
21276;BME280;36472;52.170;20.884;2023-10-19T11:35:51;99271.75;;;12.39;54.64
21276;BME280;36472;52.170;20.884;2023-10-19T11:38:20;99265.91;;;12.35;54.36
21276;BME280;36472;52.170;20.884;2023-10-19T11:40:49;99263.28;;;12.26;54.00
21276;BME280;36472;52.170;20.884;2023-10-19T11:43:20;99261.91;;;12.22;54.25
21276;BME280;36472;52.170;20.884;2023-10-19T11:45:49;99265.22;;;12.24;54.31
21276;BME280;36472;52.170;20.884;2023-10-19T11:48:19;99262.47;;;12.25;54.57
21276;BME280;36472;52.170;20.884;2023-10-19T11:50:48;99253.44;;;12.28;54.72
21276;BME280;36472;52.170;20.884;2023-10-19T11:53:19;99247.06;;;12.30;54.97
21276;BME280;36472;52.170;20.884;2023-10-19T11:55:48;99243.59;;;12.20;54.07
21276;BME280;36472;52.170;20.884;2023-10-19T11:58:17;99236.81;;;12.08;54.48
21276;BME280;36472;52.170;20.884;2023-10-19T12:00:47;99232.25;;;12.10;54.32
21276;BME280;36472;52.170;20.884;2023-10-19T12:03:16;99241.81;;;12.01;54.72
21276;BME280;36472;52.170;20.884;2023-10-19T12:05:46;99234.59;;;12.13;54.91
21276;BME280;36472;52.170;20.884;2023-10-19T12:08:15;99250.78;;;11.98;54.83
21276;BME280;36472;52.170;20.884;2023-10-19T12:10:47;99238.91;;;12.04;55.27
21276;BME280;36472;52.170;20.884;2023-10-19T12:13:17;99252.03;;;11.94;55.37
21276;BME280;36472;52.170;20.884;2023-10-19T12:15:46;99248.56;;;12.04;55.65
21276;BME280;36472;52.170;20.884;2023-10-19T12:18:20;99253.31;;;12.10;55.41
21276;BME280;36472;52.170;20.884;2023-10-19T12:20:50;99248.59;;;12.13;55.00
21276;BME280;36472;52.170;20.884;2023-10-19T12:23:25;99240.13;;;12.10;55.26
21276;BME280;36472;52.170;20.884;2023-10-19T12:25:56;99238.19;;;12.22;55.68
21276;BME280;36472;52.170;20.884;2023-10-19T12:28:25;99229.34;;;12.13;55.52
21276;BME280;36472;52.170;20.884;2023-10-19T12:30:54;99227.25;;;12.16;55.18
21276;BME280;36472;52.170;20.884;2023-10-19T12:33:23;99230.28;;;12.12;55.16
21276;BME280;36472;52.170;20.884;2023-10-19T12:35:54;99221.16;;;12.06;55.95
21276;BME280;36472;52.170;20.884;2023-10-19T12:38:25;99227.78;;;12.10;55.82
21276;BME280;36472;52.170;20.884;2023-10-19T12:40:56;99222.50;;;12.01;55.37
21276;BME280;36472;52.170;20.884;2023-10-19T12:43:26;99221.00;;;11.98;55.62
21276;BME280;36472;52.170;20.884;2023-10-19T12:45:58;99215.88;;;11.96;55.58
21276;BME280;36472;52.170;20.884;2023-10-19T12:48:27;99225.03;;;11.92;55.50
21276;BME280;36472;52.170;20.884;2023-10-19T12:51:01;99213.75;;;11.90;56.04
21276;BME280;36472;52.170;20.884;2023-10-19T12:53:31;99216.53;;;11.79;56.12
21276;BME280;36472;52.170;20.884;2023-10-19T12:56:03;99204.75;;;11.83;56.64
21276;BME280;36472;52.170;20.884;2023-10-19T12:58:32;99194.47;;;11.80;56.74
21276;BME280;36472;52.170;20.884;2023-10-19T13:01:01;99192.69;;;11.71;56.37
21276;BME280;36472;52.170;20.884;2023-10-19T13:03:33;99193.50;;;11.71;56.63
21276;BME280;36472;52.170;20.884;2023-10-19T13:06:04;99183.13;;;11.70;56.65
21276;BME280;36472;52.170;20.884;2023-10-19T13:08:35;99185.75;;;11.70;56.76
21276;BME280;36472;52.170;20.884;2023-10-19T13:11:08;99181.19;;;11.72;56.92
21276;BME280;36472;52.170;20.884;2023-10-19T13:13:45;99172.75;;;11.78;56.68
21276;BME280;36472;52.170;20.884;2023-10-19T13:16:15;99181.19;;;11.82;57.36
21276;BME280;36472;52.170;20.884;2023-10-19T13:18:44;99198.09;;;11.79;57.24